Time;durP1;ratioP1;P1;durP2;ratioP2;P2;SDS_P1;SDS_P2;PMS_P1;PMS_P2;Temp;Humidity;BMP_temperature;BMP_pressure;BME280_temperature;BME280_humidity;BME280_pressure;Samples;Min_cycle;Max_cycle;Signal;HPM_P1;HPM_P2
2022/06/27 00:01:35;;;;;;;2.38;0.70;;;12.40;99.90;;;;;;5052614;28;20376;-84
2022/06/27 00:04:03;;;;;;;2.40;0.77;;;12.50;99.90;;;;;;5052489;28;20847;-83
2022/06/27 00:06:30;;;;;;;3.17;0.70;;;12.50;99.90;;;;;;5052452;28;20908;-84
2022/06/27 00:08:59;;;;;;;3.20;0.60;;;12.70;99.90;;;;;;5052433;28;20418;-82
2022/06/27 00:11:26;;;;;;;4.32;0.90;;;12.80;99.90;;;;;;5052698;28;20801;-84
2022/06/27 00:13:53;;;;;;;2.90;0.70;;;13.00;99.90;;;;;;5052537;28;20371;-82
2022/06/27 00:16:20;;;;;;;5.78;0.60;;;13.10;99.90;;;;;;5052221;28;20380;-83
2022/06/27 00:18:47;;;;;;;2.50;0.50;;;13.20;99.90;;;;;;5055518;28;20455;-81
2022/06/27 00:21:14;;;;;;;1.70;0.60;;;13.30;99.90;;;;;;5053520;28;20392;-82
2022/06/27 00:23:42;;;;;;;2.63;0.60;;;13.30;99.90;;;;;;5052214;28;20753;-82
2022/06/27 00:26:09;;;;;;;1.75;0.60;;;13.40;99.90;;;;;;5052551;28;20458;-83
2022/06/27 00:28:36;;;;;;;5.03;0.70;;;13.40;99.90;;;;;;5052196;28;20376;-82
2022/06/27 00:31:03;;;;;;;10.07;1.13;;;14.70;99.90;;;;;;5051752;28;20497;-83
2022/06/27 00:33:30;;;;;;;6.63;0.80;;;13.50;99.90;;;;;;5052084;28;20383;-82
2022/06/27 00:35:58;;;;;;;1.92;0.50;;;13.60;99.90;;;;;;5052047;28;20374;-82
2022/06/27 00:38:25;;;;;;;9.13;1.02;;;13.70;99.90;;;;;;5052003;28;20805;-82
2022/06/27 00:40:52;;;;;;;3.00;0.60;;;13.90;99.10;;;;;;5051925;28;20728;-82
2022/06/27 00:43:19;;;;;;;3.40;0.60;;;13.90;98.90;;;;;;5052042;28;20380;-81
2022/06/27 00:45:46;;;;;;;2.30;0.50;;;13.80;98.10;;;;;;5051912;28;20705;-80
2022/06/27 00:48:14;;;;;;;9.53;1.00;;;13.90;97.60;;;;;;5055839;28;20416;-81
2022/06/27 00:50:41;;;;;;;7.00;0.88;;;13.90;97.60;;;;;;5055805;28;20804;-81
2022/06/27 00:53:12;;;;;;;3.63;0.82;;;13.90;97.90;;;;;;5055901;28;20368;-80
2022/06/27 00:55:39;;;;;;;2.38;0.60;;;14.10;96.70;;;;;;5056241;28;20450;-81
2022/06/27 00:58:06;;;;;;;2.95;0.60;;;14.00;96.70;;;;;;5056457;28;20886;-81
2022/06/27 01:00:33;;;;;;;2.25;0.50;;;13.90;97.80;;;;;;5055834;28;20388;-80
2022/06/27 01:03:00;;;;;;;3.65;0.60;;;14.00;96.70;;;;;;5055851;28;20372;-80
2022/06/27 01:05:28;;;;;;;2.28;0.60;;;14.10;96.80;;;;;;5056078;28;20951;-80
2022/06/27 01:07:55;;;;;;;3.10;0.67;;;14.00;95.80;;;;;;5055810;28;20371;-80
2022/06/27 01:10:22;;;;;;;14.88;1.50;;;14.10;95.80;;;;;;5055906;28;20483;-81
2022/06/27 01:12:50;;;;;;;3.55;0.70;;;14.10;96.10;;;;;;5055622;28;20569;-81
2022/06/27 01:15:18;;;;;;;10.35;1.10;;;14.20;95.70;;;;;;5055674;28;20415;-80
2022/06/27 01:17:46;;;;;;;3.92;0.80;;;14.50;94.70;;;;;;5055762;28;20391;-80
2022/06/27 01:20:13;;;;;;;1.60;0.60;;;14.50;94.40;;;;;;5055493;28;20376;-79
2022/06/27 01:22:41;;;;;;;2.67;0.70;;;14.40;94.40;;;;;;5055463;28;20700;-80
2022/06/27 01:25:09;;;;;;;1.70;0.60;;;14.40;95.20;;;;;;5054286;28;20783;-80
2022/06/27 01:27:37;;;;;;;2.65;0.70;;;14.30;94.90;;;;;;5055440;28;20374;-81
2022/06/27 01:30:06;;;;;;;2.40;0.70;;;14.40;94.30;;;;;;5054919;28;20395;-80
2022/06/27 01:32:33;;;;;;;2.83;0.80;;;14.30;94.40;;;;;;5055254;28;20386;-80
2022/06/27 01:35:00;;;;;;;3.83;0.60;;;14.50;94.20;;;;;;5055100;28;20451;-80
2022/06/27 01:37:27;;;;;;;3.80;0.60;;;14.60;93.50;;;;;;5055295;28;20398;-80
2022/06/27 01:39:56;;;;;;;3.70;0.60;;;14.60;93.10;;;;;;5055239;28;20406;-81
2022/06/27 01:42:24;;;;;;;4.65;0.75;;;14.50;92.90;;;;;;5055127;28;20387;-79
2022/06/27 01:44:52;;;;;;;1.45;0.60;;;14.60;92.70;;;;;;5055304;28;20372;-82
2022/06/27 01:47:19;;;;;;;2.28;0.60;;;14.60;92.50;;;;;;5054940;28;20386;-80
2022/06/27 01:49:47;;;;;;;3.67;0.65;;;14.70;92.10;;;;;;5053602;28;20919;-83
2022/06/27 01:52:15;;;;;;;4.18;1.10;;;14.70;92.30;;;;;;5055286;28;20395;-81
2022/06/27 01:54:43;;;;;;;6.03;0.70;;;14.70;92.00;;;;;;5054720;28;20457;-81
2022/06/27 01:57:11;;;;;;;4.68;0.80;;;14.80;91.80;;;;;;5054654;28;20415;-81
2022/06/27 01:59:38;;;;;;;10.80;1.20;;;14.70;92.40;;;;;;5052648;28;20380;-81
2022/06/27 02:02:06;;;;;;;2.03;0.70;;;14.80;91.90;;;;;;5054658;28;20876;-82
2022/06/27 02:04:35;;;;;;;1.58;0.40;;;15.00;90.60;;;;;;5054719;28;20875;-83
2022/06/27 02:07:03;;;;;;;2.80;0.80;;;15.00;90.10;;;;;;5054764;28;20434;-81
2022/06/27 02:09:31;;;;;;;8.63;1.00;;;15.10;91.20;;;;;;5055028;28;20849;-83
2022/06/27 02:12:18;;;;;;;13.98;1.02;;;15.20;89.20;;;;;;5054355;28;20476;-82
2022/06/27 02:14:50;;;;;;;5.13;0.80;;;15.10;88.60;;;;;;5054328;28;20383;-81
2022/06/27 02:17:18;;;;;;;1.42;0.70;;;15.10;88.00;;;;;;5054631;28;20383;-82
2022/06/27 02:19:46;;;;;;;2.28;0.80;;;15.20;85.80;;;;;;5054650;28;20369;-80
2022/06/27 02:22:13;;;;;;;1.65;0.80;;;15.30;87.40;;;;;;5054325;28;20387;-81
2022/06/27 02:24:41;;;;;;;3.60;0.82;;;15.40;85.50;;;;;;5054495;28;20942;-81
2022/06/27 02:27:10;;;;;;;6.82;0.93;;;15.40;85.00;;;;;;5054256;28;20853;-82
2022/06/27 02:29:38;;;;;;;6.07;0.90;;;15.60;83.40;;;;;;5053982;28;20487;-80
2022/06/27 02:32:06;;;;;;;4.40;0.80;;;15.70;82.80;;;;;;5054326;28;20882;-80
2022/06/27 02:34:35;;;;;;;5.55;0.70;;;15.90;81.10;;;;;;5054219;28;20739;-81
2022/06/27 02:37:04;;;;;;;2.28;0.60;;;15.80;78.80;;;;;;5054196;28;20419;-81
2022/06/27 02:39:35;;;;;;;4.70;0.80;;;15.40;77.70;;;;;;5054599;28;20368;-82
2022/06/27 02:42:04;;;;;;;2.53;0.50;;;15.20;78.80;;;;;;5054285;28;20390;-82
2022/06/27 02:44:31;;;;;;;2.65;0.70;;;14.90;79.60;;;;;;5053985;28;20430;-81
2022/06/27 02:46:59;;;;;;;3.10;0.70;;;14.80;81.60;;;;;;5053921;28;20390;-81
2022/06/27 02:49:27;;;;;;;4.30;0.70;;;15.00;82.50;;;;;;5053793;28;20386;-81
2022/06/27 02:51:57;;;;;;;1.38;0.60;;;15.10;80.90;;;;;;5053641;28;20400;-80
2022/06/27 02:54:35;;;;;;;1.08;0.50;;;15.30;79.80;;;;;;5053953;28;20371;-81
2022/06/27 02:57:08;;;;;;;1.77;0.50;;;15.70;79.00;;;;;;5052813;28;20369;-82
2022/06/27 02:59:39;;;;;;;1.48;0.60;;;15.90;75.60;;;;;;5053651;28;20883;-83
2022/06/27 03:02:09;;;;;;;1.20;0.50;;;15.80;74.40;;;;;;5053670;28;20383;-81
2022/06/27 03:04:38;;;;;;;6.63;0.80;;;15.70;75.30;;;;;;5053683;28;20383;-81
2022/06/27 03:07:05;;;;;;;6.95;0.95;;;15.70;74.10;;;;;;5053969;28;20383;-81
2022/06/27 03:09:33;;;;;;;6.72;1.10;;;15.50;74.10;;;;;;5052791;28;20729;-81
2022/06/27 03:12:00;;;;;;;6.38;0.95;;;15.40;74.80;;;;;;5052918;28;20408;-80
2022/06/27 03:14:27;;;;;;;6.22;1.10;;;15.40;73.40;;;;;;5053366;28;20376;-80
2022/06/27 03:16:54;;;;;;;6.30;1.00;;;15.50;73.60;;;;;;5053223;28;20743;-81
2022/06/27 03:19:21;;;;;;;4.78;0.90;;;15.50;73.00;;;;;;5053228;28;20870;-81
2022/06/27 03:21:48;;;;;;;7.07;0.98;;;15.50;73.60;;;;;;5053204;28;20367;-81
2022/06/27 03:24:15;;;;;;;9.65;1.30;;;15.60;74.00;;;;;;5053076;28;20403;-80
2022/06/27 03:26:42;;;;;;;8.82;1.10;;;15.80;74.00;;;;;;5052979;28;20377;-83
2022/06/27 03:29:10;;;;;;;10.30;1.58;;;15.80;73.60;;;;;;5051473;28;20803;-80
2022/06/27 03:31:37;;;;;;;5.97;0.98;;;15.70;72.90;;;;;;5052812;28;20399;-80
2022/06/27 03:34:04;;;;;;;6.45;1.00;;;15.60;72.80;;;;;;5053112;28;20380;-81
2022/06/27 03:36:31;;;;;;;4.55;0.95;;;15.50;72.90;;;;;;5052902;28;20438;-80
2022/06/27 03:38:58;;;;;;;7.10;1.00;;;15.60;72.70;;;;;;5053207;28;20368;-80
2022/06/27 03:41:26;;;;;;;7.50;1.40;;;15.50;73.10;;;;;;5052847;28;20383;-81
2022/06/27 03:43:53;;;;;;;13.45;1.60;;;15.50;73.40;;;;;;5052878;28;20376;-81
2022/06/27 03:46:20;;;;;;;6.55;1.23;;;15.50;72.90;;;;;;5052811;28;20387;-81
2022/06/27 03:51:32;;;;;;;4.53;0.80;;;15.70;70.50;;;;;;5052853;28;20402;-82
2022/06/27 03:54:00;;;;;;;2.60;0.85;;;15.80;70.20;;;;;;5052801;28;20776;-80
2022/06/27 03:56:27;;;;;;;5.47;0.87;;;15.80;69.80;;;;;;5052678;28;20458;-82
2022/06/27 03:58:54;;;;;;;4.65;0.90;;;15.90;70.40;;;;;;5052457;28;20371;-81
2022/06/27 04:01:21;;;;;;;3.70;0.73;;;16.00;69.80;;;;;;5052507;28;20892;-82
2022/06/27 04:03:48;;;;;;;5.05;1.10;;;16.10;69.80;;;;;;5052462;28;20736;-83
2022/06/27 04:06:16;;;;;;;3.58;0.93;;;16.20;69.60;;;;;;5052356;28;20398;-82
2022/06/27 04:08:43;;;;;;;13.57;1.20;;;16.20;69.80;;;;;;5052452;28;20376;-81
2022/06/27 04:11:10;;;;;;;11.70;1.40;;;16.10;68.50;;;;;;5052347;28;20416;-83
2022/06/27 04:13:37;;;;;;;4.30;0.80;;;16.00;69.30;;;;;;5052630;28;20398;-82
2022/06/27 04:16:05;;;;;;;9.60;1.50;;;16.10;68.20;;;;;;5053944;28;20724;-82
2022/06/27 04:18:32;;;;;;;10.18;1.42;;;15.90;68.80;;;;;;5052975;28;20844;-81
2022/06/27 04:21:00;;;;;;;10.50;1.55;;;15.80;70.40;;;;;;5051936;28;20412;-83
2022/06/27 04:23:27;;;;;;;13.93;2.08;;;15.80;69.50;;;;;;5052265;28;20371;-82
2022/06/27 04:25:54;;;;;;;8.63;1.33;;;15.80;70.90;;;;;;5052203;28;20464;-81
2022/06/27 04:28:21;;;;;;;4.00;0.98;;;15.90;70.90;;;;;;5052103;28;20378;-82
2022/06/27 04:30:48;;;;;;;5.10;1.10;;;15.90;70.00;;;;;;5051960;28;20511;-80
2022/06/27 04:33:19;;;;;;;7.47;1.20;;;15.90;70.10;;;;;;5051391;28;21349;-82
2022/06/27 04:35:47;;;;;;;4.63;1.00;;;15.80;70.90;;;;;;5051898;28;20376;-82
2022/06/27 04:38:17;;;;;;;4.40;1.00;;;16.00;70.60;;;;;;5052210;28;20383;-81
2022/06/27 04:40:44;;;;;;;2.05;0.73;;;16.10;69.70;;;;;;5051875;28;20399;-82
2022/06/27 04:43:12;;;;;;;4.80;0.88;;;16.20;70.60;;;;;;5051860;28;20509;-82
2022/06/27 04:45:39;;;;;;;3.13;0.90;;;16.20;69.00;;;;;;5051900;28;20455;-82
2022/06/27 04:48:07;;;;;;;2.72;0.80;;;16.40;69.30;;;;;;5051812;28;20387;-82
2022/06/27 04:50:36;;;;;;;2.13;0.80;;;16.90;67.60;;;;;;5051824;28;20392;-82
2022/06/27 04:53:05;;;;;;;1.45;0.90;;;17.40;66.50;;;;;;5051893;28;20455;-82
2022/06/27 04:55:32;;;;;;;1.92;0.80;;;17.60;65.40;;;;;;5051829;28;20383;-82
2022/06/27 04:57:59;;;;;;;2.03;0.80;;;17.70;64.60;;;;;;5051915;28;20526;-82
2022/06/27 05:00:26;;;;;;;3.08;0.80;;;17.30;64.70;;;;;;5051937;28;20433;-81
2022/06/27 05:02:54;;;;;;;3.17;0.90;;;16.80;64.80;;;;;;5051873;28;20905;-83
2022/06/27 05:05:21;;;;;;;3.85;0.80;;;16.20;65.30;;;;;;5051736;28;20471;-82
2022/06/27 05:07:48;;;;;;;2.80;0.80;;;15.60;66.50;;;;;;5051823;28;20376;-82
2022/06/27 05:10:15;;;;;;;6.03;1.10;;;15.20;67.10;;;;;;5051625;28;20387;-82
2022/06/27 05:12:42;;;;;;;4.20;0.93;;;14.90;68.10;;;;;;5051805;28;20379;-81
2022/06/27 05:15:10;;;;;;;3.78;0.90;;;14.70;67.10;;;;;;5051677;28;20368;-82
2022/06/27 05:17:37;;;;;;;4.77;1.07;;;14.50;67.90;;;;;;5051708;28;20796;-85
2022/06/27 05:20:05;;;;;;;4.75;0.90;;;14.20;68.30;;;;;;5052394;28;20388;-83
2022/06/27 05:22:33;;;;;;;2.72;0.85;;;14.00;67.00;;;;;;5051626;28;20827;-82
2022/06/27 05:25:00;;;;;;;2.53;0.90;;;13.90;66.90;;;;;;5051633;28;20375;-81
2022/06/27 05:27:27;;;;;;;3.03;0.93;;;13.90;66.40;;;;;;5051909;28;20368;-82
2022/06/27 05:29:55;;;;;;;4.23;1.07;;;13.80;67.20;;;;;;5050033;28;20396;-82
2022/06/27 05:32:23;;;;;;;3.83;0.80;;;13.80;67.20;;;;;;5051423;28;20926;-81
2022/06/27 05:34:50;;;;;;;4.93;0.90;;;13.80;67.30;;;;;;5053233;28;20394;-81
2022/06/27 05:37:17;;;;;;;4.68;1.02;;;13.90;68.00;;;;;;5055201;28;20732;-81
2022/06/27 05:39:46;;;;;;;3.20;0.90;;;13.90;66.90;;;;;;5055336;28;20497;-82
2022/06/27 05:42:13;;;;;;;3.58;1.00;;;13.80;66.40;;;;;;5055030;28;20375;-82
2022/06/27 05:44:40;;;;;;;2.15;0.90;;;13.80;67.10;;;;;;5055058;28;20385;-82
2022/06/27 05:47:09;;;;;;;1.83;0.80;;;13.70;67.10;;;;;;5054933;28;20376;-82
2022/06/27 05:49:39;;;;;;;3.05;0.80;;;13.60;66.90;;;;;;5054922;28;20376;-82
2022/06/27 05:52:06;;;;;;;4.10;1.00;;;13.60;67.20;;;;;;5054623;28;20415;-81
2022/06/27 05:54:35;;;;;;;2.95;1.10;;;13.50;67.00;;;;;;5054771;28;20700;-78
2022/06/27 05:57:04;;;;;;;5.07;1.20;;;13.60;66.30;;;;;;5055038;28;20380;-85
2022/06/27 05:59:31;;;;;;;5.32;1.10;;;13.60;66.70;;;;;;5054960;28;20384;-87
2022/06/27 06:02:00;;;;;;;4.40;1.10;;;13.40;66.60;;;;;;5055036;28;20387;-83
2022/06/27 06:04:27;;;;;;;3.72;1.10;;;13.30;67.10;;;;;;5055106;28;20730;-81
2022/06/27 06:06:54;;;;;;;10.75;1.70;;;13.20;67.50;;;;;;5054111;28;20740;-80
2022/06/27 06:09:22;;;;;;;7.72;1.33;;;13.20;68.20;;;;;;5054721;28;20372;-83
2022/06/27 06:11:51;;;;;;;5.10;1.20;;;13.10;68.20;;;;;;5056462;28;20412;-87
2022/06/27 06:14:21;;;;;;;5.60;1.10;;;13.00;68.30;;;;;;5054869;28;20403;-87
2022/06/27 06:16:50;;;;;;;3.88;1.20;;;13.00;68.50;;;;;;5054459;28;20387;-87
2022/06/27 06:19:18;;;;;;;3.80;1.20;;;12.80;69.30;;;;;;5054677;28;20383;-84
2022/06/27 06:21:45;;;;;;;4.07;1.10;;;12.70;68.60;;;;;;5055313;28;20380;-80
2022/06/27 06:24:14;;;;;;;2.30;0.95;;;12.60;68.30;;;;;;5054413;28;20438;-89
2022/06/27 06:26:41;;;;;;;3.22;1.00;;;12.60;68.20;;;;;;5055972;28;20384;-84
2022/06/27 06:29:15;;;;;;;6.75;1.30;;;12.50;68.80;;;;;;5055559;28;20458;-81
2022/06/27 06:31:46;;;;;;;3.33;1.05;;;12.50;68.90;;;;;;5054981;28;20399;-81
2022/06/27 06:34:16;;;;;;;3.53;1.08;;;12.40;69.10;;;;;;5054406;28;20724;-80
2022/06/27 06:36:45;;;;;;;5.17;1.20;;;12.30;69.80;;;;;;5054241;28;20400;-86
2022/06/27 06:39:13;;;;;;;4.60;1.20;;;12.10;69.90;;;;;;5054081;28;20411;-83
2022/06/27 06:41:40;;;;;;;5.87;1.07;;;12.00;70.60;;;;;;5054372;28;20376;-85
2022/06/27 06:44:07;;;;;;;3.80;1.10;;;12.00;70.90;;;;;;5054479;28;20376;-84
2022/06/27 06:46:35;;;;;;;6.17;1.10;;;11.90;70.90;;;;;;5052938;28;20748;-89
2022/06/27 06:49:05;;;;;;;3.25;1.00;;;11.80;72.40;;;;;;5053756;28;20855;-89
2022/06/27 06:51:35;;;;;;;3.88;1.10;;;11.70;73.20;;;;;;5057133;28;20961;-86
2022/06/27 06:54:06;;;;;;;5.05;1.25;;;11.60;73.50;;;;;;5054424;28;20445;-92
2022/06/27 06:56:36;;;;;;;3.70;1.10;;;11.60;73.10;;;;;;5052825;28;20391;-88
2022/06/27 06:59:04;;;;;;;3.47;1.00;;;11.50;73.90;;;;;;5055183;28;20368;-88
2022/06/27 07:01:37;;;;;;;4.20;1.25;;;11.50;74.20;;;;;;5056839;28;20379;-90
2022/06/27 07:04:04;;;;;;;7.43;1.40;;;11.40;74.40;;;;;;5055757;28;20464;-90
2022/06/27 07:06:33;;;;;;;6.90;1.40;;;11.40;74.00;;;;;;5055500;28;20376;-89
2022/06/27 07:09:01;;;;;;;3.90;1.40;;;10.90;74.80;;;;;;5053978;28;20455;-88
2022/06/27 07:11:30;;;;;;;3.92;1.23;;;11.30;74.90;;;;;;5054868;28;20400;-89
2022/06/27 07:13:58;;;;;;;3.05;1.38;;;11.30;75.30;;;;;;5053514;28;20463;-92
2022/06/27 07:16:26;;;;;;;5.38;1.27;;;11.30;75.60;;;;;;5053977;28;20384;-86
2022/06/27 07:18:55;;;;;;;7.50;1.40;;;11.20;75.20;;;;;;5054031;28;20451;-87
2022/06/27 07:21:25;;;;;;;5.22;1.40;;;11.10;76.10;;;;;;5055948;28;20382;-93
2022/06/27 07:23:53;;;;;;;4.90;1.30;;;11.10;75.50;;;;;;5054254;28;20375;-86
2022/06/27 07:26:21;;;;;;;4.78;1.40;;;11.10;75.30;;;;;;5053715;28;20472;-82
2022/06/27 07:28:49;;;;;;;4.90;1.88;;;11.10;75.20;;;;;;5054218;28;20372;-94
2022/06/27 07:31:18;;;;;;;7.50;1.40;;;11.10;74.20;;;;;;5053156;28;20412;-88
2022/06/27 07:33:48;;;;;;;6.15;2.40;;;10.90;74.70;;;;;;5053545;28;20425;-82
2022/06/27 07:36:17;;;;;;;3.88;1.95;;;11.00;74.50;;;;;;5053188;28;20388;-91
2022/06/27 07:38:46;;;;;;;5.25;2.20;;;10.90;74.60;;;;;;5053541;28;20375;-86
2022/06/27 07:41:15;;;;;;;6.55;3.25;;;10.90;74.90;;;;;;5054131;28;21050;-83
2022/06/27 07:43:46;;;;;;;4.63;1.80;;;10.80;75.50;;;;;;5053321;28;20458;-85
2022/06/27 07:46:15;;;;;;;7.00;3.40;;;10.70;75.70;;;;;;5054268;28;20379;-88
2022/06/27 07:48:42;;;;;;;4.35;2.50;;;10.60;76.20;;;;;;5054118;28;20364;-82
2022/06/27 07:51:10;;;;;;;4.97;2.37;;;10.40;76.70;;;;;;5052720;28;20407;-89
2022/06/27 07:53:37;;;;;;;5.88;2.40;;;10.50;76.90;;;;;;5053166;28;20379;-87
2022/06/27 07:56:06;;;;;;;4.40;2.20;;;10.50;77.10;;;;;;5052175;28;20876;-84
2022/06/27 07:58:38;;;;;;;5.55;2.55;;;10.50;76.40;;;;;;5052577;28;20384;-84
2022/06/27 08:01:09;;;;;;;5.20;2.17;;;10.50;75.60;;;;;;5055469;28;20383;-93
2022/06/27 08:03:56;;;;;;;4.85;1.63;;;10.60;75.50;;;;;;5055385;28;20923;-92
2022/06/27 08:06:26;;;;;;;5.47;1.50;;;10.60;75.40;;;;;;5053663;28;20363;-88
2022/06/27 08:08:57;;;;;;;4.23;1.67;;;10.60;74.90;;;;;;5051623;28;20384;-91
2022/06/27 08:11:27;;;;;;;3.83;1.70;;;10.60;74.60;;;;;;5052918;28;20876;-89
2022/06/27 08:13:56;;;;;;;4.18;1.40;;;10.60;74.30;;;;;;5053379;28;20430;-95
2022/06/27 08:16:25;;;;;;;3.45;1.40;;;10.70;74.20;;;;;;5052834;28;20425;-92
2022/06/27 08:18:53;;;;;;;4.20;2.45;;;10.70;73.50;;;;;;5053684;28;20382;-93
2022/06/27 08:21:24;;;;;;;5.00;1.75;;;10.70;73.00;;;;;;5053041;28;20743;-85
2022/06/27 08:23:52;;;;;;;5.18;1.77;;;10.70;72.80;;;;;;5052943;28;20368;-94
2022/06/27 08:26:21;;;;;;;7.78;2.00;;;10.70;72.30;;;;;;5056283;28;20387;-89
2022/06/27 08:28:52;;;;;;;10.93;1.92;;;10.80;71.70;;;;;;5056124;28;20388;-89
2022/06/27 08:31:20;;;;;;;6.70;1.70;;;10.80;71.60;;;;;;5052575;28;20469;-88
2022/06/27 08:33:49;;;;;;;5.80;1.27;;;10.80;71.30;;;;;;5056896;28;20368;-87
2022/06/27 08:36:17;;;;;;;8.57;1.33;;;10.80;71.00;;;;;;5062596;28;20392;-84
2022/06/27 08:38:51;;;;;;;5.85;1.17;;;10.80;70.30;;;;;;5062119;28;20451;-84
2022/06/27 08:41:20;;;;;;;6.65;1.20;;;10.90;70.20;;;;;;5057416;28;20376;-88
2022/06/27 08:43:49;;;;;;;4.00;1.08;;;10.90;70.60;;;;;;5056042;28;20782;-91
2022/06/27 08:46:18;;;;;;;6.43;1.40;;;10.70;71.20;;;;;;5058956;28;20407;-92
2022/06/27 08:48:49;;;;;;;3.45;0.98;;;10.60;72.20;;;;;;5057400;28;20371;-91
2022/06/27 08:51:16;;;;;;;3.75;1.30;;;10.40;72.40;;;;;;5056396;28;20416;-89
2022/06/27 08:57:08;;;;;;;4.53;1.00;;;10.30;72.40;;;;;;5053736;28;20396;-87
2022/06/27 08:59:58;;;;;;;7.85;1.40;;;10.20;71.70;;;;;;5053701;28;20384;-88
2022/06/27 09:02:26;;;;;;;11.23;1.45;;;10.40;71.50;;;;;;5037554;28;20409;-91
2022/06/27 09:05:02;;;;;;;10.90;1.45;;;10.40;71.10;;;;;;5032920;28;20499;-87
2022/06/27 09:07:56;;;;;;;5.95;1.20;;;10.50;70.80;;;;;;5031900;28;20435;-89
2022/06/27 09:10:26;;;;;;;6.60;1.20;;;10.60;70.90;;;;;;5034944;28;20388;-85
2022/06/27 09:12:58;;;;;;;4.78;1.10;;;10.50;71.10;;;;;;5036579;28;20420;-89
2022/06/27 09:15:45;;;;;;;5.60;0.93;;;10.40;71.20;;;;;;5036981;28;20385;-86
2022/06/27 09:18:15;;;;;;;6.40;1.50;;;10.40;71.50;;;;;;5035090;28;20377;-88
2022/06/27 09:21:05;;;;;;;6.03;1.40;;;10.40;72.10;;;;;;5035874;28;20409;-84
2022/06/27 09:23:42;;;;;;;7.60;1.60;;;10.20;72.60;;;;;;5036239;28;20717;-87
2022/06/27 09:26:20;;;;;;;3.75;1.17;;;10.10;73.30;;;;;;5036604;28;20870;-91
2022/06/27 09:28:53;;;;;;;4.60;1.40;;;10.00;73.70;;;;;;5034954;28;20460;-87
2022/06/27 09:31:35;;;;;;;3.55;1.40;;;9.90;74.40;;;;;;5034930;28;20921;-89
2022/06/27 09:34:16;;;;;;;3.38;1.25;;;9.80;75.10;;;;;;5035397;28;20372;-86
2022/06/27 09:36:58;;;;;;;4.95;1.15;;;9.70;75.40;;;;;;5034743;28;20413;-91
2022/06/27 09:39:34;;;;;;;2.40;1.33;;;9.60;76.30;;;;;;5034254;28;20369;-87
2022/06/27 09:42:06;;;;;;;6.55;2.75;;;9.40;77.10;;;;;;5034273;28;20400;-93
2022/06/27 09:44:52;;;;;;;3.10;1.23;;;9.30;77.90;;;;;;5017144;28;20477;-91
2022/06/27 09:47:21;;;;;;;2.88;1.20;;;9.20;78.20;;;;;;5055639;28;20375;-91
2022/06/27 09:49:51;;;;;;;2.38;1.30;;;9.10;78.70;;;;;;5056039;28;20372;-86
2022/06/27 09:52:23;;;;;;;4.03;1.60;;;8.90;79.70;;;;;;5059199;28;20414;-89
2022/06/27 09:54:54;;;;;;;3.47;1.30;;;8.80;81.00;;;;;;5058483;28;20370;-91
2022/06/27 09:57:22;;;;;;;4.38;1.30;;;8.90;81.10;;;;;;5053964;28;20383;-91
2022/06/27 09:59:51;;;;;;;3.40;1.38;;;8.90;81.60;;;;;;5054081;28;20454;-92
2022/06/27 10:02:22;;;;;;;4.82;1.30;;;8.90;82.30;;;;;;5055111;28;20383;-92
2022/06/27 10:04:51;;;;;;;6.60;1.40;;;8.80;83.10;;;;;;5055216;28;20387;-90
2022/06/27 10:07:21;;;;;;;7.30;2.40;;;8.90;84.10;;;;;;5055245;28;20495;-91
2022/06/27 10:09:52;;;;;;;5.00;2.50;;;9.00;84.20;;;;;;5056643;28;20368;-87
2022/06/27 10:12:22;;;;;;;7.10;3.53;;;9.10;83.80;;;;;;5056056;28;20479;-93
2022/06/27 10:15:20;;;;;;;6.22;3.40;;;9.30;84.40;;;;;;5053517;28;20379;-87
2022/06/27 10:17:47;;;;;;;9.35;3.22;;;9.40;84.50;;;;;;5033223;28;20378;-90
2022/06/27 10:20:20;;;;;;;8.57;2.50;;;9.30;84.70;;;;;;5032103;28;20374;-90
2022/06/27 10:23:09;;;;;;;6.43;2.30;;;9.30;84.70;;;;;;5032851;28;20467;-87
2022/06/27 10:25:38;;;;;;;4.13;1.85;;;9.10;86.10;;;;;;5032660;28;20467;-88
2022/06/27 10:28:12;;;;;;;3.58;1.90;;;9.00;86.70;;;;;;5033065;28;20404;-91
2022/06/27 10:30:51;;;;;;;4.28;1.65;;;9.10;87.20;;;;;;5032546;28;20408;-91
2022/06/27 10:33:24;;;;;;;6.93;2.05;;;9.10;87.30;;;;;;5033183;28;20411;-91
2022/06/27 10:38:32;;;;;;;7.60;3.40;;;9.00;88.50;;;;;;5032777;28;20373;-89
2022/06/27 10:41:01;;;;;;;8.60;3.42;;;9.00;89.40;;;;;;5032883;28;20402;-88
2022/06/27 10:43:45;;;;;;;12.60;3.92;;;8.90;90.00;;;;;;5032732;28;20386;-91
2022/06/27 10:46:13;;;;;;;8.70;3.63;;;8.80;90.20;;;;;;5032692;28;20913;-92
2022/06/27 10:48:52;;;;;;;9.77;3.78;;;8.90;90.40;;;;;;5032819;28;20384;-85
2022/06/27 10:51:22;;;;;;;7.40;3.40;;;8.90;90.70;;;;;;5032611;28;20413;-92
2022/06/27 10:54:12;;;;;;;8.85;3.28;;;8.90;91.30;;;;;;5041505;28;20379;-91
2022/06/27 10:56:53;;;;;;;5.65;2.80;;;8.90;91.20;;;;;;5051551;28;20394;-85
2022/06/27 10:59:20;;;;;;;5.22;2.47;;;8.90;91.00;;;;;;5054613;28;20458;-89
2022/06/27 11:02:00;;;;;;;8.40;2.63;;;9.00;90.90;;;;;;5058225;28;20913;-86
2022/06/27 11:04:29;;;;;;;7.93;2.65;;;9.10;91.10;;;;;;5054580;28;20875;-87
2022/06/27 11:07:21;;;;;;;5.20;2.63;;;9.00;90.90;;;;;;5054913;28;20888;-93
2022/06/27 11:09:49;;;;;;;5.55;3.08;;;9.00;91.00;;;;;;5053306;28;20414;-86
2022/06/27 11:12:18;;;;;;;8.43;3.50;;;8.90;91.30;;;;;;5054512;28;20412;-90
2022/06/27 11:14:54;;;;;;;5.20;2.90;;;8.70;91.90;;;;;;5054114;28;20406;-86
2022/06/27 11:17:43;;;;;;;5.18;2.10;;;8.60;92.20;;;;;;5054651;28;20375;-85
2022/06/27 11:20:20;;;;;;;7.32;2.35;;;8.40;92.70;;;;;;5054814;28;20376;-88
2022/06/27 11:22:54;;;;;;;6.25;2.30;;;8.30;93.10;;;;;;5053745;28;20378;-85
2022/06/27 11:25:23;;;;;;;5.45;2.30;;;8.20;93.50;;;;;;5060407;28;20368;-84
2022/06/27 11:27:54;;;;;;;7.68;2.42;;;8.20;94.40;;;;;;5063085;28;20460;-90
2022/06/27 11:33:20;;;;;;;5.60;2.20;;;8.00;95.10;;;;;;5055278;28;20458;-89
2022/06/27 11:35:48;;;;;;;5.22;1.98;;;7.90;95.70;;;;;;5052888;28;20438;-87
2022/06/27 11:38:40;;;;;;;4.07;1.85;;;7.80;96.10;;;;;;5054110;28;20376;-90
2022/06/27 11:41:13;;;;;;;5.43;1.85;;;7.70;96.60;;;;;;5053665;28;20372;-87
2022/06/27 11:43:56;;;;;;;3.13;1.70;;;7.70;97.10;;;;;;5053564;28;20778;-87
2022/06/27 11:46:25;;;;;;;4.55;1.95;;;7.60;97.20;;;;;;5054021;28;20372;-86
2022/06/27 11:49:07;;;;;;;7.00;4.68;;;7.60;97.30;;;;;;5053219;28;20935;-88
2022/06/27 11:51:50;;;;;;;5.50;3.25;;;7.60;97.60;;;;;;5053903;28;20392;-88
2022/06/27 11:54:21;;;;;;;3.88;2.13;;;7.70;97.40;;;;;;5053446;28;20372;-87
2022/06/27 11:56:50;;;;;;;4.38;2.20;;;7.70;97.50;;;;;;5053194;28;20376;-85
2022/06/27 11:59:19;;;;;;;3.92;1.75;;;7.60;97.70;;;;;;5053099;28;20375;-89
2022/06/27 12:01:54;;;;;;;2.67;1.60;;;7.70;98.10;;;;;;5053055;28;20551;-88
2022/06/27 12:04:26;;;;;;;2.72;1.60;;;7.60;98.20;;;;;;5052938;28;20380;-90
2022/06/27 12:07:11;;;;;;;2.53;1.52;;;7.70;98.40;;;;;;5053641;28;20871;-90
2022/06/27 12:09:52;;;;;;;2.77;1.70;;;7.70;98.50;;;;;;5052775;28;20506;-92
2022/06/27 12:12:25;;;;;;;3.50;1.90;;;7.80;98.60;;;;;;5052716;28;20395;-86
2022/06/27 12:14:54;;;;;;;3.92;1.63;;;7.80;98.70;;;;;;5051837;28;20440;-89
2022/06/27 12:17:26;;;;;;;2.05;1.65;;;7.90;98.90;;;;;;5052987;28;20467;-87
2022/06/27 12:20:04;;;;;;;2.80;1.50;;;7.90;99.30;;;;;;5053323;28;20396;-90
2022/06/27 12:22:32;;;;;;;2.95;1.38;;;7.80;99.20;;;;;;5052180;28;20387;-90
2022/06/27 12:25:15;;;;;;;4.07;1.50;;;7.90;99.40;;;;;;5052846;28;20371;-90
2022/06/27 12:27:42;;;;;;;2.95;1.33;;;8.00;99.20;;;;;;5053180;28;20405;-91
2022/06/27 12:30:10;;;;;;;3.42;1.50;;;7.90;99.40;;;;;;5055269;28;20391;-82
2022/06/27 12:32:37;;;;;;;4.20;1.50;;;7.80;99.60;;;;;;5052949;28;20883;-85
2022/06/27 12:35:06;;;;;;;2.50;1.60;;;7.80;99.90;;;;;;5052416;28;20449;-88
2022/06/27 12:37:35;;;;;;;2.63;1.40;;;7.70;99.90;;;;;;5052552;28;20379;-87
2022/06/27 12:40:04;;;;;;;3.78;1.42;;;7.70;99.90;;;;;;5052805;28;20395;-86
2022/06/27 12:42:31;;;;;;;3.10;1.30;;;7.60;99.90;;;;;;5052565;28;20767;-87
2022/06/27 12:44:58;;;;;;;2.45;1.30;;;7.60;99.90;;;;;;5054850;28;20435;-87
2022/06/27 12:47:26;;;;;;;3.17;1.40;;;7.60;99.90;;;;;;5056543;28;20375;-88
2022/06/27 12:49:53;;;;;;;4.32;1.70;;;7.60;99.90;;;;;;5057518;28;20375;-86
2022/06/27 12:52:20;;;;;;;3.65;1.70;;;7.70;99.90;;;;;;5055083;28;20411;-88
2022/06/27 12:54:47;;;;;;;3.90;1.30;;;7.70;99.90;;;;;;5056915;28;20396;-87
2022/06/27 12:57:14;;;;;;;2.70;1.42;;;7.50;99.90;;;;;;5058386;28;20395;-88
2022/06/27 12:59:42;;;;;;;2.30;1.30;;;7.80;99.90;;;;;;5054578;28;20889;-86
2022/06/27 13:02:11;;;;;;;3.72;1.50;;;7.80;99.90;;;;;;5051964;28;20423;-85
2022/06/27 13:04:38;;;;;;;3.73;1.50;;;7.80;99.90;;;;;;5052351;28;20380;-89
2022/06/27 13:07:05;;;;;;;4.63;1.60;;;7.80;99.90;;;;;;5052373;28;20380;-89
2022/06/27 13:09:33;;;;;;;3.53;1.77;;;7.10;99.90;;;;;;5052305;28;20786;-88
2022/06/27 13:12:00;;;;;;;2.28;1.50;;;7.70;99.90;;;;;;5051962;28;20888;-87
2022/06/27 13:14:27;;;;;;;3.50;1.80;;;7.70;99.90;;;;;;5055359;28;20371;-88